PWSweather.com
Personal Weather Stations
Station Observations
KMAMEDFI2
Medfield, MA 02052

Medfield, MA 02052

Lat: 42.1900822, Lon: -71.3296889

Elevation: 138

Station Type: Rainwise WS MK-III

http://www.medfieldweather.com

Latest ConditionsUpdated 7:30:00 PM EST Sunday, Dec 21, 2014
Currently Today's Max Today's Min Today's Average
Temperature 32.2°F0.1°C 33.1°F0.6°C 29.9°F-1.2°C 31.3°F-0.4°C
Dew Point 30.9°F-0.6°C 31.8°F-0.1°C 28.3°F-2.1°C 29.9°F-1.2°C
Winds 0.6 mph W1.0 kmh W 3.1 mph N5.0 kmh N - 1.2 mph 1.9 kmh
Wind Gusts 2.8 mph4.5 kmh 8.4 mph13.5 kmh - -
Humidity 95% 95% 94% 95%
Pressure 30.24 in1024.0 mb 30.24 in1024.0 mb 30.16 in1021.3 mb -
Hour Temp Dew Point Humidity Winds Wind Gusts Pressure Precip Precip Rate Daily Precip Total
07:30 PM 32.2°F0.1°C 30.9°F-0.6°C 95% 0.6 mph W1.0 kmh W 2.8 mph4.5 kmh 30.24 in1024.0 mb 0.00 in0.0 mm 0.00 in/hr0.0 mm/hr 0.00 in0.0 mm
07:20 PM 32.2°F0.1°C 30.9°F-0.6°C 95% 0.6 mph W1.0 kmh W 2.8 mph4.5 kmh 30.24 in1024.0 mb 0.00 in0.0 mm 0.00 in/hr0.0 mm/hr 0.00 in0.0 mm
07:00 PM 32.2°F0.1°C 30.9°F-0.6°C 95% 0.6 mph WNW1.0 kmh WNW 2.8 mph4.5 kmh 30.23 in1023.7 mb 0.00 in0.0 mm 0.00 in/hr0.0 mm/hr 0.00 in0.0 mm
06:50 PM 32.2°F0.1°C 30.9°F-0.6°C 95% 0.4 mph WNW0.6 kmh WNW 2.8 mph4.5 kmh 30.23 in1023.7 mb 0.00 in0.0 mm 0.00 in/hr0.0 mm/hr 0.00 in0.0 mm
06:40 PM 32.2°F0.1°C 30.9°F-0.6°C 95% 0.3 mph WSW0.5 kmh WSW 1.4 mph2.3 kmh 30.23 in1023.7 mb 0.00 in0.0 mm 0.00 in/hr0.0 mm/hr 0.00 in0.0 mm
06:30 PM 32.2°F0.1°C 31.0°F-0.6°C 95% 0.4 mph WSW0.6 kmh WSW 1.4 mph2.3 kmh 30.23 in1023.7 mb 0.00 in0.0 mm 0.00 in/hr0.0 mm/hr 0.00 in0.0 mm
06:10 PM 32.3°F0.2°C 31.0°F-0.6°C 95% 0.6 mph S1.0 kmh S 2.8 mph4.5 kmh 30.22 in1023.4 mb 0.00 in0.0 mm 0.00 in/hr0.0 mm/hr 0.00 in0.0 mm
06:00 PM 32.2°F0.1°C 31.0°F-0.6°C 95% 0.6 mph W1.0 kmh W 2.8 mph4.5 kmh 30.22 in1023.4 mb 0.00 in0.0 mm 0.00 in/hr0.0 mm/hr 0.00 in0.0 mm
05:50 PM 32.2°F0.1°C 31.0°F-0.6°C 95% 0.7 mph W1.1 kmh W 2.8 mph4.5 kmh 30.22 in1023.4 mb 0.00 in0.0 mm 0.00 in/hr0.0 mm/hr 0.00 in0.0 mm
05:40 PM 32.2°F0.1°C 30.9°F-0.6°C 95% 1.0 mph NE1.6 kmh NE 2.8 mph4.5 kmh 30.22 in1023.4 mb 0.00 in0.0 mm 0.00 in/hr0.0 mm/hr 0.00 in0.0 mm
05:30 PM 32.2°F0.1°C 30.9°F-0.6°C 95% 1.2 mph S1.9 kmh S 2.8 mph4.5 kmh 30.22 in1023.4 mb 0.00 in0.0 mm 0.00 in/hr0.0 mm/hr 0.00 in0.0 mm
05:20 PM 32.2°F0.1°C 30.9°F-0.6°C 95% 1.4 mph SSE2.3 kmh SSE 2.8 mph4.5 kmh 30.21 in1023.0 mb 0.00 in0.0 mm 0.00 in/hr0.0 mm/hr 0.00 in0.0 mm
05:10 PM 32.2°F0.1°C 30.9°F-0.6°C 95% 0.4 mph NE0.6 kmh NE 2.8 mph4.5 kmh 30.20 in1022.7 mb 0.00 in0.0 mm 0.00 in/hr0.0 mm/hr 0.00 in0.0 mm
05:00 PM 32.2°F0.1°C 30.9°F-0.6°C 95% 0.6 mph NE1.0 kmh NE 2.8 mph4.5 kmh 30.20 in1022.7 mb 0.00 in0.0 mm 0.00 in/hr0.0 mm/hr 0.00 in0.0 mm
04:50 PM 32.2°F0.1°C 31.0°F-0.6°C 95% 0.8 mph NNW1.3 kmh NNW 2.8 mph4.5 kmh 30.20 in1022.7 mb 0.00 in0.0 mm 0.00 in/hr0.0 mm/hr 0.00 in0.0 mm
04:40 PM 32.2°F0.1°C 31.0°F-0.6°C 95% 1.0 mph NW1.6 kmh NW 2.8 mph4.5 kmh 30.20 in1022.7 mb 0.00 in0.0 mm 0.00 in/hr0.0 mm/hr 0.00 in0.0 mm
04:20 PM 32.3°F0.2°C 31.1°F-0.5°C 95% 1.6 mph WNW2.6 kmh WNW 2.8 mph4.5 kmh 30.20 in1022.7 mb 0.00 in0.0 mm 0.00 in/hr0.0 mm/hr 0.00 in0.0 mm
04:00 PM 32.5°F0.3°C 31.2°F-0.4°C 95% 0.8 mph NNW1.3 kmh NNW 2.8 mph4.5 kmh 30.20 in1022.7 mb 0.00 in0.0 mm 0.00 in/hr0.0 mm/hr 0.00 in0.0 mm
03:50 PM 32.7°F0.4°C 31.4°F-0.3°C 95% 0.4 mph NNE0.6 kmh NNE 2.8 mph4.5 kmh 30.20 in1022.7 mb 0.00 in0.0 mm 0.00 in/hr0.0 mm/hr 0.00 in0.0 mm
03:40 PM 32.8°F0.4°C 31.5°F-0.3°C 95% 0.4 mph ENE0.6 kmh ENE 2.8 mph4.5 kmh 30.20 in1022.7 mb 0.00 in0.0 mm 0.00 in/hr0.0 mm/hr 0.00 in0.0 mm
03:30 PM 32.9°F0.5°C 31.6°F-0.2°C 95% 0.5 mph NE0.8 kmh NE 2.8 mph4.5 kmh 30.20 in1022.7 mb 0.00 in0.0 mm 0.00 in/hr0.0 mm/hr 0.00 in0.0 mm
03:20 PM 32.9°F0.5°C 31.6°F-0.2°C 95% 1.6 mph N2.6 kmh N 4.2 mph6.8 kmh 30.20 in1022.7 mb 0.00 in0.0 mm 0.00 in/hr0.0 mm/hr 0.00 in0.0 mm
03:00 PM 32.9°F0.5°C 31.6°F-0.2°C 95% 0.8 mph WSW1.3 kmh WSW 4.2 mph6.8 kmh 30.20 in1022.7 mb 0.00 in0.0 mm 0.00 in/hr0.0 mm/hr 0.00 in0.0 mm
02:50 PM 32.9°F0.5°C 31.6°F-0.2°C 95% 1.7 mph NNE2.7 kmh NNE 5.6 mph9.0 kmh 30.20 in1022.7 mb 0.00 in0.0 mm 0.00 in/hr0.0 mm/hr 0.00 in0.0 mm
02:40 PM 32.8°F0.4°C 31.6°F-0.2°C 95% 1.0 mph N1.6 kmh N 2.8 mph4.5 kmh 30.20 in1022.7 mb 0.00 in0.0 mm 0.00 in/hr0.0 mm/hr 0.00 in0.0 mm
02:30 PM 32.9°F0.5°C 31.6°F-0.2°C 95% 1.7 mph NE2.7 kmh NE 2.8 mph4.5 kmh 30.19 in1022.4 mb 0.00 in0.0 mm 0.00 in/hr0.0 mm/hr 0.00 in0.0 mm
02:10 PM 33.1°F0.6°C 31.8°F-0.1°C 95% 1.0 mph NNW1.6 kmh NNW 2.8 mph4.5 kmh 30.19 in1022.4 mb 0.00 in0.0 mm 0.00 in/hr0.0 mm/hr 0.00 in0.0 mm
02:00 PM 32.9°F0.5°C 31.6°F-0.2°C 95% 2.0 mph S3.2 kmh S 2.8 mph4.5 kmh 30.19 in1022.4 mb 0.00 in0.0 mm 0.00 in/hr0.0 mm/hr 0.00 in0.0 mm
01:50 PM 32.8°F0.4°C 31.3°F-0.4°C 94% 2.4 mph WNW3.9 kmh WNW 4.2 mph6.8 kmh 30.19 in1022.4 mb 0.00 in0.0 mm 0.00 in/hr0.0 mm/hr 0.00 in0.0 mm
01:40 PM 32.8°F0.4°C 31.5°F-0.3°C 95% 2.3 mph NNW3.7 kmh NNW 5.6 mph9.0 kmh 30.19 in1022.4 mb 0.00 in0.0 mm 0.00 in/hr0.0 mm/hr 0.00 in0.0 mm
01:30 PM 32.9°F0.5°C 31.6°F-0.2°C 95% 1.3 mph SSE2.1 kmh SSE 5.6 mph9.0 kmh 30.19 in1022.4 mb 0.00 in0.0 mm 0.00 in/hr0.0 mm/hr 0.00 in0.0 mm
01:10 PM 32.5°F0.3°C 31.2°F-0.4°C 95% 0.8 mph NE1.3 kmh NE 2.8 mph4.5 kmh 30.19 in1022.4 mb 0.00 in0.0 mm 0.00 in/hr0.0 mm/hr 0.00 in0.0 mm
01:00 PM 32.2°F0.1°C 30.9°F-0.6°C 95% 2.4 mph N3.9 kmh N 2.8 mph4.5 kmh 30.19 in1022.4 mb 0.00 in0.0 mm 0.00 in/hr0.0 mm/hr 0.00 in0.0 mm
12:50 PM 32.3°F0.2°C 31.0°F-0.6°C 95% 3.1 mph N5.0 kmh N 5.6 mph9.0 kmh 30.19 in1022.4 mb 0.00 in0.0 mm 0.00 in/hr0.0 mm/hr 0.00 in0.0 mm
12:40 PM 32.2°F0.1°C 31.0°F-0.6°C 95% 2.8 mph NW4.5 kmh NW 8.4 mph13.5 kmh 30.18 in1022.0 mb 0.00 in0.0 mm 0.00 in/hr0.0 mm/hr 0.00 in0.0 mm
12:30 PM 32.2°F0.1°C 30.9°F-0.6°C 95% 1.9 mph W3.1 kmh W 2.8 mph4.5 kmh 30.19 in1022.4 mb 0.00 in0.0 mm 0.00 in/hr0.0 mm/hr 0.00 in0.0 mm
12:20 PM 31.9°F-0.1°C 30.6°F-0.8°C 95% 1.8 mph N2.9 kmh N 5.6 mph9.0 kmh 30.19 in1022.4 mb 0.00 in0.0 mm 0.00 in/hr0.0 mm/hr 0.00 in0.0 mm
12:10 PM 31.4°F-0.3°C 30.2°F-1.0°C 95% 2.5 mph NW4.0 kmh NW 2.8 mph4.5 kmh 30.19 in1022.4 mb 0.00 in0.0 mm 0.00 in/hr0.0 mm/hr 0.00 in0.0 mm
11:40 AM 31.2°F-0.4°C 29.9°F-1.2°C 95% 1.7 mph WSW2.7 kmh WSW 2.8 mph4.5 kmh 30.20 in1022.7 mb 0.00 in0.0 mm 0.00 in/hr0.0 mm/hr 0.00 in0.0 mm
11:30 AM 31.4°F-0.3°C 30.2°F-1.0°C 95% 1.4 mph NW2.3 kmh NW 4.2 mph6.8 kmh 30.20 in1022.7 mb 0.00 in0.0 mm 0.00 in/hr0.0 mm/hr 0.00 in0.0 mm
11:20 AM 31.4°F-0.3°C 30.1°F-1.1°C 95% 1.8 mph WNW2.9 kmh WNW 2.8 mph4.5 kmh 30.20 in1022.7 mb 0.00 in0.0 mm 0.00 in/hr0.0 mm/hr 0.00 in0.0 mm
11:10 AM 31.0°F-0.6°C 29.5°F-1.4°C 94% 1.5 mph E2.4 kmh E 2.8 mph4.5 kmh 30.20 in1022.7 mb 0.00 in0.0 mm 0.00 in/hr0.0 mm/hr 0.00 in0.0 mm
11:00 AM 30.7°F-0.7°C 29.2°F-1.6°C 94% 2.2 mph WNW3.5 kmh WNW 5.6 mph9.0 kmh 30.21 in1023.0 mb 0.00 in0.0 mm 0.00 in/hr0.0 mm/hr 0.00 in0.0 mm
10:50 AM 30.7°F-0.7°C 29.2°F-1.6°C 94% 2.9 mph NW4.7 kmh NW 8.4 mph13.5 kmh 30.22 in1023.4 mb 0.00 in0.0 mm 0.00 in/hr0.0 mm/hr 0.00 in0.0 mm
10:40 AM 30.8°F-0.7°C 29.2°F-1.6°C 94% 1.0 mph NNW1.6 kmh NNW 4.2 mph6.8 kmh 30.22 in1023.4 mb 0.00 in0.0 mm 0.00 in/hr0.0 mm/hr 0.00 in0.0 mm
10:30 AM 30.5°F-0.8°C 29.0°F-1.7°C 94% 2.2 mph SE3.5 kmh SE 2.8 mph4.5 kmh 30.22 in1023.4 mb 0.00 in0.0 mm 0.00 in/hr0.0 mm/hr 0.00 in0.0 mm
10:20 AM 30.5°F-0.8°C 28.9°F-1.7°C 94% 1.6 mph E2.6 kmh E 5.6 mph9.0 kmh 30.22 in1023.4 mb 0.00 in0.0 mm 0.00 in/hr0.0 mm/hr 0.00 in0.0 mm
10:10 AM 30.6°F-0.8°C 29.0°F-1.7°C 94% 1.1 mph W1.8 kmh W 2.8 mph4.5 kmh 30.22 in1023.4 mb 0.00 in0.0 mm 0.00 in/hr0.0 mm/hr 0.00 in0.0 mm
10:00 AM 30.4°F-0.9°C 28.9°F-1.7°C 94% 0.9 mph NW1.4 kmh NW 1.4 mph2.3 kmh 30.22 in1023.4 mb 0.00 in0.0 mm 0.00 in/hr0.0 mm/hr 0.00 in0.0 mm
09:40 AM 30.1°F-1.1°C 28.5°F-1.9°C 94% 1.3 mph E2.1 kmh E 2.8 mph4.5 kmh 30.22 in1023.4 mb 0.00 in0.0 mm 0.00 in/hr0.0 mm/hr 0.00 in0.0 mm
09:30 AM 30.0°F-1.1°C 28.4°F-2.0°C 94% 1.9 mph NW3.1 kmh NW 4.2 mph6.8 kmh 30.21 in1023.0 mb 0.00 in0.0 mm 0.00 in/hr0.0 mm/hr 0.00 in0.0 mm
09:20 AM 29.9°F-1.2°C 28.4°F-2.0°C 94% 1.2 mph W1.9 kmh W 5.6 mph9.0 kmh 30.21 in1023.0 mb 0.00 in0.0 mm 0.00 in/hr0.0 mm/hr 0.00 in0.0 mm
09:10 AM 29.9°F-1.2°C 28.4°F-2.0°C 94% 2.1 mph NW3.4 kmh NW 5.6 mph9.0 kmh 30.20 in1022.7 mb 0.00 in0.0 mm 0.00 in/hr0.0 mm/hr 0.00 in0.0 mm
08:50 AM 29.9°F-1.2°C 28.3°F-2.1°C 94% 1.8 mph NW2.9 kmh NW 5.6 mph9.0 kmh 30.20 in1022.7 mb 0.00 in0.0 mm 0.00 in/hr0.0 mm/hr 0.00 in0.0 mm
08:30 AM 29.9°F-1.2°C 28.4°F-2.0°C 94% 2.0 mph WNW3.2 kmh WNW 5.6 mph9.0 kmh 30.20 in1022.7 mb 0.00 in0.0 mm 0.00 in/hr0.0 mm/hr 0.00 in0.0 mm
08:10 AM 30.0°F-1.1°C 28.5°F-1.9°C 94% 1.2 mph NNW1.9 kmh NNW 4.2 mph6.8 kmh 30.20 in1022.7 mb 0.00 in0.0 mm 0.00 in/hr0.0 mm/hr 0.00 in0.0 mm
08:00 AM 29.9°F-1.2°C 28.4°F-2.0°C 94% 1.4 mph WNW2.3 kmh WNW 2.8 mph4.5 kmh 30.20 in1022.7 mb 0.00 in0.0 mm 0.00 in/hr0.0 mm/hr 0.00 in0.0 mm
07:50 AM 30.0°F-1.1°C 28.4°F-2.0°C 94% 1.2 mph NNW1.9 kmh NNW 2.8 mph4.5 kmh 30.20 in1022.7 mb 0.00 in0.0 mm 0.00 in/hr0.0 mm/hr 0.00 in0.0 mm
07:40 AM 30.1°F-1.1°C 28.6°F-1.9°C 94% 1.4 mph WNW2.3 kmh WNW 2.8 mph4.5 kmh 30.20 in1022.7 mb 0.00 in0.0 mm 0.00 in/hr0.0 mm/hr 0.00 in0.0 mm
07:30 AM 30.2°F-1.0°C 28.7°F-1.8°C 94% 1.2 mph NNE1.9 kmh NNE 2.8 mph4.5 kmh 30.19 in1022.4 mb 0.00 in0.0 mm 0.00 in/hr0.0 mm/hr 0.00 in0.0 mm
07:20 AM 30.3°F-0.9°C 28.8°F-1.8°C 94% 2.2 mph N3.5 kmh N 5.6 mph9.0 kmh 30.19 in1022.4 mb 0.00 in0.0 mm 0.00 in/hr0.0 mm/hr 0.00 in0.0 mm
07:10 AM 30.4°F-0.9°C 28.9°F-1.7°C 94% 1.8 mph NW2.9 kmh NW 7.0 mph11.3 kmh 30.19 in1022.4 mb 0.00 in0.0 mm 0.00 in/hr0.0 mm/hr 0.00 in0.0 mm
06:50 AM 30.6°F-0.8°C 29.1°F-1.6°C 94% 0.9 mph SE1.4 kmh SE 1.4 mph2.3 kmh 30.19 in1022.4 mb 0.00 in0.0 mm 0.00 in/hr0.0 mm/hr 0.00 in0.0 mm
06:40 AM 30.6°F-0.8°C 29.1°F-1.6°C 94% 2.3 mph N3.7 kmh N 2.8 mph4.5 kmh 30.19 in1022.4 mb 0.00 in0.0 mm 0.00 in/hr0.0 mm/hr 0.00 in0.0 mm
06:30 AM 30.5°F-0.8°C 29.0°F-1.7°C 94% 0.8 mph NW1.3 kmh NW 2.8 mph4.5 kmh 30.18 in1022.0 mb 0.00 in0.0 mm 0.00 in/hr0.0 mm/hr 0.00 in0.0 mm
06:20 AM 30.5°F-0.8°C 29.0°F-1.7°C 94% 0.8 mph SSE1.3 kmh SSE 2.8 mph4.5 kmh 30.18 in1022.0 mb 0.00 in0.0 mm 0.00 in/hr0.0 mm/hr 0.00 in0.0 mm
06:10 AM 30.4°F-0.9°C 28.9°F-1.7°C 94% 2.6 mph NW4.2 kmh NW 2.8 mph4.5 kmh 30.18 in1022.0 mb 0.00 in0.0 mm 0.00 in/hr0.0 mm/hr 0.00 in0.0 mm
06:00 AM 30.3°F-0.9°C 28.8°F-1.8°C 94% 1.0 mph NW1.6 kmh NW 4.2 mph6.8 kmh 30.18 in1022.0 mb 0.00 in0.0 mm 0.00 in/hr0.0 mm/hr 0.00 in0.0 mm
05:50 AM 30.3°F-0.9°C 28.7°F-1.8°C 94% 1.5 mph NW2.4 kmh NW 2.8 mph4.5 kmh 30.18 in1022.0 mb 0.00 in0.0 mm 0.00 in/hr0.0 mm/hr 0.00 in0.0 mm
05:40 AM 30.2°F-1.0°C 28.6°F-1.9°C 94% 0.6 mph SE1.0 kmh SE 2.8 mph4.5 kmh 30.18 in1022.0 mb 0.00 in0.0 mm 0.00 in/hr0.0 mm/hr 0.00 in0.0 mm
05:30 AM 30.1°F-1.1°C 28.6°F-1.9°C 94% 0.9 mph ESE1.4 kmh ESE 2.8 mph4.5 kmh 30.17 in1021.7 mb 0.00 in0.0 mm 0.00 in/hr0.0 mm/hr 0.00 in0.0 mm
05:20 AM 30.2°F-1.0°C 28.7°F-1.8°C 94% 1.7 mph NE2.7 kmh NE 2.8 mph4.5 kmh 30.17 in1021.7 mb 0.00 in0.0 mm 0.00 in/hr0.0 mm/hr 0.00 in0.0 mm
05:10 AM 30.2°F-1.0°C 28.6°F-1.9°C 94% 1.4 mph NNE2.3 kmh NNE 2.8 mph4.5 kmh 30.17 in1021.7 mb 0.00 in0.0 mm 0.00 in/hr0.0 mm/hr 0.00 in0.0 mm
05:00 AM 30.2°F-1.0°C 28.7°F-1.8°C 94% 1.1 mph NE1.8 kmh NE 2.8 mph4.5 kmh 30.16 in1021.3 mb 0.00 in0.0 mm 0.00 in/hr0.0 mm/hr 0.00 in0.0 mm
04:50 AM 30.2°F-1.0°C 28.6°F-1.9°C 94% 2.2 mph NE3.5 kmh NE 8.4 mph13.5 kmh 30.16 in1021.3 mb 0.00 in0.0 mm 0.00 in/hr0.0 mm/hr 0.00 in0.0 mm
04:40 AM 30.0°F-1.1°C 28.5°F-1.9°C 94% 0.6 mph NW1.0 kmh NW 2.8 mph4.5 kmh 30.16 in1021.3 mb 0.00 in0.0 mm 0.00 in/hr0.0 mm/hr 0.00 in0.0 mm
04:30 AM 30.0°F-1.1°C 28.4°F-2.0°C 94% 0.4 mph WNW0.6 kmh WNW 2.8 mph4.5 kmh 30.16 in1021.3 mb 0.00 in0.0 mm 0.00 in/hr0.0 mm/hr 0.00 in0.0 mm
04:20 AM 30.0°F-1.1°C 28.5°F-1.9°C 94% 1.7 mph W2.7 kmh W 2.8 mph4.5 kmh 30.16 in1021.3 mb 0.00 in0.0 mm 0.00 in/hr0.0 mm/hr 0.00 in0.0 mm
04:10 AM 30.0°F-1.1°C 28.5°F-1.9°C 94% 0.5 mph NW0.8 kmh NW 2.8 mph4.5 kmh 30.16 in1021.3 mb 0.00 in0.0 mm 0.00 in/hr0.0 mm/hr 0.00 in0.0 mm
03:30 AM 30.6°F-0.8°C 29.0°F-1.7°C 94% 0.8 mph S1.3 kmh S 2.8 mph4.5 kmh 30.17 in1021.7 mb 0.00 in0.0 mm 0.00 in/hr0.0 mm/hr 0.00 in0.0 mm
03:20 AM 30.8°F-0.7°C 29.3°F-1.5°C 94% 1.0 mph NNW1.6 kmh NNW 2.8 mph4.5 kmh 30.17 in1021.7 mb 0.00 in0.0 mm 0.00 in/hr0.0 mm/hr 0.00 in0.0 mm
03:10 AM 31.1°F-0.5°C 29.9°F-1.2°C 95% 0.1 mph WSW0.2 kmh WSW 1.4 mph2.3 kmh 30.18 in1022.0 mb 0.00 in0.0 mm 0.00 in/hr0.0 mm/hr 0.00 in0.0 mm
03:00 AM 31.3°F-0.4°C 30.0°F-1.1°C 95% 0.5 mph N0.8 kmh N 2.8 mph4.5 kmh 30.18 in1022.0 mb 0.00 in0.0 mm 0.00 in/hr0.0 mm/hr 0.00 in0.0 mm
02:50 AM 31.4°F-0.3°C 30.1°F-1.1°C 95% 0.4 mph 0.6 kmh 4.2 mph6.8 kmh 30.18 in1022.0 mb 0.00 in0.0 mm 0.00 in/hr0.0 mm/hr 0.00 in0.0 mm
02:40 AM 31.4°F-0.3°C 30.2°F-1.0°C 95% 0.3 mph NE0.5 kmh NE 1.4 mph2.3 kmh 30.18 in1022.0 mb 0.00 in0.0 mm 0.00 in/hr0.0 mm/hr 0.00 in0.0 mm
02:30 AM 31.5°F-0.3°C 30.2°F-1.0°C 95% 0.5 mph SW0.8 kmh SW 1.4 mph2.3 kmh 30.17 in1021.7 mb 0.00 in0.0 mm 0.00 in/hr0.0 mm/hr 0.00 in0.0 mm
02:20 AM 31.5°F-0.3°C 30.2°F-1.0°C 95% 0.5 mph W0.8 kmh W 2.8 mph4.5 kmh 30.18 in1022.0 mb 0.00 in0.0 mm 0.00 in/hr0.0 mm/hr 0.00 in0.0 mm
02:10 AM 31.4°F-0.3°C 30.2°F-1.0°C 95% 0.5 mph W0.8 kmh W 2.8 mph4.5 kmh 30.18 in1022.0 mb 0.00 in0.0 mm 0.00 in/hr0.0 mm/hr 0.00 in0.0 mm
02:00 AM 31.4°F-0.3°C 30.1°F-1.1°C 95% 1.2 mph W1.9 kmh W 2.8 mph4.5 kmh 30.18 in1022.0 mb 0.00 in0.0 mm 0.00 in/hr0.0 mm/hr 0.00 in0.0 mm
01:50 AM 31.3°F-0.4°C 30.1°F-1.1°C 95% 0.5 mph W0.8 kmh W 2.8 mph4.5 kmh 30.17 in1021.7 mb 0.00 in0.0 mm 0.00 in/hr0.0 mm/hr 0.00 in0.0 mm
01:40 AM 31.3°F-0.4°C 30.1°F-1.1°C 95% 0.3 mph W0.5 kmh W -- 30.17 in1021.7 mb 0.00 in0.0 mm 0.00 in/hr0.0 mm/hr 0.00 in0.0 mm
01:30 AM 31.2°F-0.4°C 29.9°F-1.2°C 95% 0.3 mph W0.5 kmh W 2.8 mph4.5 kmh 30.16 in1021.3 mb 0.00 in0.0 mm 0.00 in/hr0.0 mm/hr 0.00 in0.0 mm
01:20 AM 31.1°F-0.5°C 29.8°F-1.2°C 95% 0.4 mph NW0.6 kmh NW 2.8 mph4.5 kmh 30.16 in1021.3 mb 0.00 in0.0 mm 0.00 in/hr0.0 mm/hr 0.00 in0.0 mm
01:10 AM 31.1°F-0.5°C 29.8°F-1.2°C 95% 0.1 mph WSW0.2 kmh WSW 2.8 mph4.5 kmh 30.16 in1021.3 mb 0.00 in0.0 mm 0.00 in/hr0.0 mm/hr 0.00 in0.0 mm
01:00 AM 31.2°F-0.4°C 29.9°F-1.2°C 95% 1.2 mph N1.9 kmh N 2.8 mph4.5 kmh 30.16 in1021.3 mb 0.00 in0.0 mm 0.00 in/hr0.0 mm/hr 0.00 in0.0 mm
12:50 AM 31.2°F-0.4°C 30.0°F-1.1°C 95% 0.7 mph WNW1.1 kmh WNW 2.8 mph4.5 kmh 30.16 in1021.3 mb 0.00 in0.0 mm 0.00 in/hr0.0 mm/hr 0.00 in0.0 mm
12:40 AM 31.3°F-0.4°C 30.0°F-1.1°C 95% 0.8 mph E1.3 kmh E 2.8 mph4.5 kmh 30.16 in1021.3 mb 0.00 in0.0 mm 0.00 in/hr0.0 mm/hr 0.00 in0.0 mm
12:30 AM 31.3°F-0.4°C 30.1°F-1.1°C 95% 0.1 mph WNW0.2 kmh WNW 1.4 mph2.3 kmh 30.17 in1021.7 mb 0.00 in0.0 mm 0.00 in/hr0.0 mm/hr 0.00 in0.0 mm
12:20 AM 31.2°F-0.4°C 30.0°F-1.1°C 95% 0.1 mph ENE0.2 kmh ENE 2.8 mph4.5 kmh 30.17 in1021.7 mb 0.00 in0.0 mm 0.00 in/hr0.0 mm/hr 0.00 in0.0 mm
12:10 AM 31.3°F-0.4°C 30.0°F-1.1°C 95% 0.1 mph NE0.2 kmh NE -- 30.17 in1021.7 mb 0.00 in0.0 mm 0.00 in/hr0.0 mm/hr 0.00 in0.0 mm